Time;durP1;ratioP1;P1;durP2;ratioP2;P2;SDS_P1;SDS_P2;PMS_P1;PMS_P2;Temp;Humidity;BMP_temperature;BMP_pressure;BME280_temperature;BME280_humidity;BME280_pressure;Samples;Min_cycle;Max_cycle;Signal;HPM_P1;HPM_P2
2023/09/04 00:03:05;;;;;;;;;;;20.60;73.10;;;19.93;63.04;100892.19;10413137;28;959;-75
2023/09/04 00:08:01;;;;;;;;;;;20.60;73.10;;;19.93;62.96;100894.84;10413534;28;897;-75
2023/09/04 00:12:56;;;;;;;;;;;20.60;73.10;;;19.93;63.12;100886.03;10412962;28;1897;-75
2023/09/04 00:17:51;;;;;;;;;;;20.60;73.10;;;19.92;63.03;100877.25;10413405;28;802;-75
2023/09/04 00:22:47;;;;;;;;;;;20.60;73.10;;;19.92;63.06;100868.44;10412394;28;897;-75
2023/09/04 00:27:42;;;;;;;;;;;20.60;73.00;;;19.92;63.01;100866.66;10412646;28;1145;-75
2023/09/04 00:32:38;;;;;;;;;;;20.60;73.00;;;19.92;63.16;100879.03;10411873;28;1906;-75
2023/09/04 00:37:33;;;;;;;;;;;20.60;73.10;;;19.91;63.11;100877.28;10411750;28;874;-75
2023/09/04 00:42:29;;;;;;;;;;;20.60;73.00;;;19.91;62.99;100872.88;10411549;28;919;-75
2023/09/04 00:47:25;;;;;;;;;;;20.60;73.10;;;19.91;63.08;100879.91;10411351;28;879;-75
2023/09/04 00:52:20;;;;;;;;;;;20.60;73.00;;;19.90;63.03;100881.72;10412060;28;864;-75
2023/09/04 00:57:16;;;;;;;;;;;20.60;73.00;;;19.88;63.09;100883.53;10410920;28;1963;-75
2023/09/04 01:02:11;;;;;;;;;;;20.60;73.00;;;19.89;62.91;100880.00;10410802;28;858;-75
2023/09/04 01:07:06;;;;;;;;;;;20.60;73.00;;;19.88;63.00;100877.38;10409867;28;799;-75
2023/09/04 01:12:02;;;;;;;;;;;20.60;73.00;;;19.88;62.99;100867.66;10411059;28;895;-75
2023/09/04 01:16:58;;;;;;;;;;;20.60;73.00;;;19.87;63.03;100867.72;10410140;28;1890;-75
2023/09/04 01:21:53;;;;;;;;;;;20.60;73.00;;;19.86;62.94;100866.88;10410816;28;844;-75
2023/09/04 01:26:48;;;;;;;;;;;20.60;73.00;;;19.85;63.05;100862.47;10410494;28;846;-75
2023/09/04 01:31:44;;;;;;;;;;;20.60;73.00;;;19.85;63.05;100857.19;10408893;28;1408;-75
2023/09/04 01:36:39;;;;;;;;;;;20.60;73.00;;;19.84;63.01;100858.13;10409930;28;1898;-75
2023/09/04 01:41:35;;;;;;;;;;;20.60;73.00;;;19.84;62.99;100854.63;10409198;28;874;-75
2023/09/04 01:46:30;;;;;;;;;;;20.50;72.80;;;19.83;63.23;100845.81;10409684;28;896;-75
2023/09/04 01:51:25;;;;;;;;;;;20.50;72.80;;;19.82;62.96;100841.44;10409520;28;770;-75
2023/09/04 01:56:21;;;;;;;;;;;20.50;72.80;;;19.83;63.07;100852.88;10408697;28;1963;-75
2023/09/04 02:01:16;;;;;;;;;;;20.50;72.80;;;19.81;62.99;100854.72;10407978;28;896;-75
2023/09/04 02:06:12;;;;;;;;;;;20.50;72.80;;;19.81;62.99;100860.03;10408399;28;882;-75
2023/09/04 02:11:07;;;;;;;;;;;20.50;73.70;;;19.77;63.01;100869.81;10408161;28;1579;-75
2023/09/04 02:16:03;;;;;;;;;;;20.50;72.80;;;19.79;62.85;100857.41;10407918;28;1961;-75
2023/09/04 02:21:03;;;;;;;;;;;20.50;72.70;;;19.84;62.83;100855.47;10408707;28;817;-75
2023/09/04 02:25:58;;;;;;;;;;;20.50;72.50;;;19.91;62.60;100843.78;10408599;28;876;-75
2023/09/04 02:30:54;;;;;;;;;;;20.60;72.60;;;19.96;62.43;100846.22;10407887;28;1288;-75
2023/09/04 02:35:49;;;;;;;;;;;20.60;72.40;;;20.02;62.33;100842.53;10408476;28;1910;-75
2023/09/04 02:40:45;;;;;;;;;;;20.70;72.40;;;20.03;62.26;100834.53;10408705;28;817;-75
2023/09/04 02:45:40;;;;;;;;;;;20.70;72.20;;;20.05;62.31;100837.13;10407514;28;1288;-75
2023/09/04 02:50:36;;;;;;;;;;;20.70;72.20;;;20.05;62.27;100842.41;10406909;28;910;-75
2023/09/04 02:55:31;;;;;;;;;;;20.70;72.10;;;20.05;62.20;100837.13;10407413;28;1906;-70
2023/09/04 03:00:26;;;;;;;;;;;20.70;72.00;;;20.03;62.28;100839.81;10407895;28;845;-72
2023/09/04 03:05:22;;;;;;;;;;;20.70;72.00;;;20.04;62.19;100830.09;10407051;28;766;-72
2023/09/04 03:10:17;;;;;;;;;;;20.70;71.80;;;20.05;62.21;100831.84;10407065;28;809;-72
2023/09/04 03:15:13;;;;;;;;;;;20.70;71.70;;;20.06;62.19;100826.47;10406948;28;1905;-72
2023/09/04 03:20:10;;;;;;;;;;;20.70;71.70;;;20.08;62.17;100834.38;10406858;28;898;-72
2023/09/04 03:25:05;;;;;;;;;;;20.70;71.60;;;20.10;62.06;100830.75;10406869;28;876;-72
2023/09/04 03:30:00;;;;;;;;;;;20.70;71.60;;;20.11;62.00;100832.47;10412584;28;1270;-73
2023/09/04 03:34:56;;;;;;;;;;;20.80;71.60;;;20.13;61.93;100819.19;10414119;28;1910;-72
2023/09/04 03:39:51;;;;;;;;;;;20.80;71.40;;;20.11;61.85;100821.88;10414170;28;823;-72
2023/09/04 03:44:47;;;;;;;;;;;20.80;71.40;;;20.09;62.04;100815.75;10413956;28;813;-72
2023/09/04 03:49:42;;;;;;;;;;;20.80;71.30;;;20.09;61.83;100817.56;10413653;28;945;-72
2023/09/04 03:54:37;;;;;;;;;;;20.80;71.30;;;20.08;61.88;100822.00;10414007;28;1906;-72
2023/09/04 03:59:33;;;;;;;;;;;20.70;71.20;;;20.08;61.93;100806.09;10413381;28;901;-72
2023/09/04 04:04:28;;;;;;;;;;;20.70;71.20;;;20.08;61.88;100808.75;10414584;28;880;-72
2023/09/04 04:09:24;;;;;;;;;;;20.80;71.30;;;20.10;61.69;100806.06;10413653;28;865;-72
2023/09/04 04:14:19;;;;;;;;;;;20.80;71.10;;;20.10;61.78;100806.94;10413290;28;1910;-72
2023/09/04 04:19:16;;;;;;;;;;;20.80;71.10;;;20.11;61.62;100813.06;10413323;28;836;-72
2023/09/04 04:24:11;;;;;;;;;;;20.80;71.00;;;20.11;61.68;100815.72;10412548;28;1165;-72
2023/09/04 04:29:07;;;;;;;;;;;20.80;71.00;;;20.10;61.70;100814.00;10412905;28;1130;-72
2023/09/04 04:34:03;;;;;;;;;;;20.70;70.80;;;20.10;61.67;100811.38;10412279;28;1976;-73
2023/09/04 04:38:58;;;;;;;;;;;20.80;71.00;;;20.12;61.62;100810.38;10411652;28;895;-72
2023/09/04 04:43:54;;;;;;;;;;;20.70;70.80;;;20.12;61.47;100806.84;10411617;28;979;-69
2023/09/04 04:48:49;;;;;;;;;;;20.80;70.90;;;20.12;61.60;100813.03;10410862;28;916;-68
2023/09/04 04:53:45;;;;;;;;;;;20.80;70.70;;;20.12;61.34;100801.56;10411050;28;1902;-71
2023/09/04 04:58:40;;;;;;;;;;;20.80;70.60;;;20.11;61.53;100815.72;10411044;28;1003;-69
2023/09/04 05:03:36;;;;;;;;;;;20.80;70.60;;;20.11;61.30;100810.44;10410805;28;774;-71
2023/09/04 05:13:33;;;;;;;;;;;20.70;70.70;;;20.10;61.51;100804.28;10411011;28;1963;-72
2023/09/04 05:18:28;;;;;;;;;;;20.80;70.80;;;20.11;61.47;100800.69;10410184;28;837;-72
2023/09/04 05:23:23;;;;;;;;;;;20.70;70.70;;;20.12;61.43;100807.75;10410890;28;905;-72
2023/09/04 05:28:19;;;;;;;;;;;20.80;70.90;;;20.12;61.46;100807.75;10409229;28;1328;-72
2023/09/04 05:33:14;;;;;;;;;;;20.80;70.80;;;20.12;61.50;100810.38;10409536;28;1909;-72
2023/09/04 05:38:09;;;;;;;;;;;20.80;70.80;;;20.10;61.44;100814.88;10409404;28;806;-72
2023/09/04 05:43:06;;;;;;;;;;;20.80;70.80;;;20.10;61.53;100822.81;10409587;28;1115;-71
2023/09/04 05:48:01;;;;;;;;;;;20.70;70.70;;;20.10;61.51;100821.94;10410347;28;960;-72
2023/09/04 05:52:57;;;;;;;;;;;20.70;70.70;;;20.09;61.50;100821.06;10408332;28;1945;-72
2023/09/04 05:57:52;;;;;;;;;;;20.70;70.80;;;20.12;61.43;100812.16;10409340;28;833;-72
2023/09/04 06:02:48;;;;;;;;;;;20.70;70.70;;;20.09;61.37;100817.56;10408630;28;831;-72
2023/09/04 06:07:43;;;;;;;;;;;20.70;70.70;;;20.09;61.50;100822.84;10408557;28;809;-72
2023/09/04 06:12:38;;;;;;;;;;;20.70;70.70;;;20.08;61.51;100823.78;10408902;28;1976;-72
2023/09/04 06:17:35;;;;;;;;;;;20.70;70.70;;;20.08;61.62;100826.44;10408328;28;963;-72
2023/09/04 06:22:31;;;;;;;;;;;20.70;70.80;;;20.09;61.48;100823.69;10408107;28;789;-72
2023/09/04 06:27:26;;;;;;;;;;;20.70;70.80;;;20.11;61.53;100826.31;10407901;28;960;-72
2023/09/04 06:32:22;;;;;;;;;;;20.70;70.90;;;20.09;61.48;100833.44;10407783;28;1450;-71
2023/09/04 06:37:17;;;;;;;;;;;20.70;70.80;;;20.09;61.38;100836.09;10408455;28;1963;-72
2023/09/04 06:42:13;;;;;;;;;;;20.70;70.90;;;20.09;61.50;100834.28;10407685;28;777;-72
2023/09/04 06:47:09;;;;;;;;;;;20.70;70.90;;;20.10;61.49;100829.88;10407595;28;969;-72
2023/09/04 06:52:04;;;;;;;;;;;20.70;70.90;;;20.10;61.58;100822.81;10406849;28;1123;-72
2023/09/04 06:56:59;;;;;;;;;;;20.70;70.80;;;20.10;61.58;100816.66;10407974;28;1953;-72
2023/09/04 07:01:55;;;;;;;;;;;20.70;71.00;;;20.09;61.43;100815.75;10408569;28;775;-72
2023/09/04 07:06:50;;;;;;;;;;;20.70;71.00;;;20.09;61.57;100817.56;10415474;28;778;-72
2023/09/04 07:11:46;;;;;;;;;;;20.70;70.80;;;20.06;61.63;100818.53;10414664;28;1268;-72
2023/09/04 07:16:41;;;;;;;;;;;20.70;70.90;;;20.05;61.48;100811.53;10415617;28;1909;-72
2023/09/04 07:21:36;;;;;;;;;;;20.70;70.90;;;20.06;61.53;100820.31;10414291;28;1198;-72
2023/09/04 07:26:32;;;;;;;;;;;20.70;71.00;;;20.07;61.49;100811.47;10414718;28;865;-72
2023/09/04 07:31:28;;;;;;;;;;;20.70;71.10;;;20.07;61.46;100814.13;10414782;28;1429;-72
2023/09/04 07:36:24;;;;;;;;;;;20.70;71.10;;;20.07;61.63;100809.69;10414004;28;1968;-70
2023/09/04 07:41:19;;;;;;;;;;;20.70;71.10;;;20.06;61.60;100818.53;10414125;28;809;-69
2023/09/04 07:46:14;;;;;;;;;;;20.70;71.10;;;20.09;61.48;100809.63;10414852;28;874;-69
2023/09/04 07:51:10;;;;;;;;;;;20.70;71.10;;;20.06;61.61;100809.72;10413802;28;952;-68
2023/09/04 07:56:05;;;;;;;;;;;20.60;71.10;;;20.07;61.59;100816.78;10413178;28;1914;-69
2023/09/04 08:01:01;;;;;;;;;;;20.60;71.20;;;20.07;61.64;100811.47;10411942;28;1037;-69
2023/09/04 08:05:57;;;;;;;;;;;20.60;71.30;;;20.12;61.48;100813.03;10411940;28;827;-75
2023/09/04 08:10:53;;;;;;;;;;;20.70;71.30;;;20.13;61.52;100817.41;10412540;28;793;-69
2023/09/04 08:15:48;;;;;;;;;;;20.70;71.30;;;20.14;61.65;100812.97;10412260;28;1901;-68
2023/09/04 08:20:44;;;;;;;;;;;20.70;71.20;;;20.13;61.67;100808.59;10412832;28;876;-70
2023/09/04 08:25:39;;;;;;;;;;;20.70;71.30;;;20.16;61.47;100812.91;10417213;27;1801;-69
2023/09/04 08:30:34;;;;;;;;;;;20.70;71.30;;;20.15;61.72;100817.34;10437269;27;1811;-69
2023/09/04 08:35:30;;;;;;;;;;;20.70;71.40;;;20.14;61.68;100815.59;10444957;27;1901;-68
2023/09/04 08:40:26;;;;;;;;;;;20.70;71.40;;;20.19;61.46;100824.25;10453741;27;809;-67
2023/09/04 08:45:21;;;;;;;;;;;20.70;71.50;;;20.19;61.57;100816.31;10454007;27;872;-68
2023/09/04 08:50:19;;;;;;;;;;;20.70;71.50;;;20.16;61.74;100807.63;10453599;27;809;-67
2023/09/04 08:55:15;;;;;;;;;;;20.70;71.50;;;20.15;61.64;100801.47;10452658;27;1898;-67
2023/09/04 09:00:10;;;;;;;;;;;20.70;71.50;;;20.18;61.48;100796.06;10451823;27;900;-72
2023/09/04 09:05:07;;;;;;;;;;;20.70;71.50;;;20.19;61.55;100797.78;10452494;27;797;-69
2023/09/04 09:10:02;;;;;;;;;;;20.70;71.50;;;20.18;61.65;100798.72;10452514;27;938;-70
2023/09/04 09:14:58;;;;;;;;;;;20.70;71.50;;;20.20;61.58;100790.69;10451467;27;1947;-70
2023/09/04 09:19:53;;;;;;;;;;;20.70;71.60;;;20.22;61.52;100780.91;10452078;27;835;-70
2023/09/04 09:24:50;;;;;;;;;;;20.70;71.60;;;20.21;61.67;100795.94;10451568;27;790;-70
2023/09/04 09:29:45;;;;;;;;;;;20.70;71.60;;;20.21;61.67;100781.84;10451004;27;1672;-74
2023/09/04 09:34:40;;;;;;;;;;;20.70;71.70;;;20.17;61.69;100782.88;10451373;27;1914;-71
2023/09/04 09:39:36;;;;;;;;;;;20.70;71.90;;;20.15;61.80;100782.94;10450824;27;816;-71
2023/09/04 09:44:31;;;;;;;;;;;20.70;71.90;;;20.15;61.77;100782.94;10450962;27;881;-71
2023/09/04 09:49:27;;;;;;;;;;;20.70;71.90;;;20.17;61.94;100777.56;10451456;27;867;-70
2023/09/04 09:54:22;;;;;;;;;;;20.70;72.00;;;20.14;61.92;100775.91;10450425;27;1898;-71
2023/09/04 09:59:17;;;;;;;;;;;20.70;72.10;;;20.12;61.83;100770.69;10450446;27;819;-71
2023/09/04 10:04:13;;;;;;;;;;;20.60;72.00;;;20.12;61.89;100773.31;10449625;27;1086;-70
2023/09/04 10:09:09;;;;;;;;;;;20.60;72.90;;;20.12;62.00;100764.50;10449984;27;873;-71
2023/09/04 10:14:04;;;;;;;;;;;20.60;72.10;;;20.11;62.00;100761.00;10450613;27;1902;-71
2023/09/04 10:19:00;;;;;;;;;;;20.60;72.30;;;20.10;62.25;100751.34;10450017;27;785;-70
2023/09/04 10:23:55;;;;;;;;;;;20.60;72.40;;;20.10;62.13;100745.19;10449904;27;788;-71
2023/09/04 10:28:51;;;;;;;;;;;20.60;72.60;;;20.11;62.51;100738.97;10450239;27;1138;-68
2023/09/04 10:33:48;;;;;;;;;;;20.60;72.70;;;20.09;62.11;100727.56;10449494;27;1909;-71
2023/09/04 10:38:44;;;;;;;;;;;20.60;72.50;;;20.08;62.39;100728.50;10457854;27;777;-70
2023/09/04 10:43:39;;;;;;;;;;;20.60;72.60;;;20.08;62.33;100712.63;10462721;27;801;-70
2023/09/04 10:48:35;;;;;;;;;;;20.60;72.60;;;20.08;62.49;100712.63;10462352;27;1114;-69
2023/09/04 10:53:31;;;;;;;;;;;20.60;72.70;;;20.07;62.38;100708.25;10432608;27;1906;-69
2023/09/04 10:58:26;;;;;;;;;;;20.60;72.80;;;20.08;62.40;100710.81;10420624;28;1024;-70
2023/09/04 11:03:21;;;;;;;;;;;20.60;72.90;;;20.06;62.23;100701.22;10421744;28;759;-70
2023/09/04 11:08:17;;;;;;;;;;;20.60;72.90;;;20.06;62.34;100701.22;10420711;28;913;-69
2023/09/04 11:13:12;;;;;;;;;;;20.60;73.00;;;20.07;62.35;100702.97;10420867;28;1909;-69
2023/09/04 11:18:08;;;;;;;;;;;20.60;73.00;;;20.10;62.58;100698.41;10420177;28;978;-69
2023/09/04 11:23:03;;;;;;;;;;;20.60;73.10;;;20.11;62.46;100699.25;10420137;28;865;-69
2023/09/04 11:27:59;;;;;;;;;;;20.60;73.20;;;20.09;62.41;100701.09;10419719;28;1152;-69
2023/09/04 11:32:54;;;;;;;;;;;20.60;73.10;;;20.09;62.52;100695.81;10420197;28;1965;-70
2023/09/04 11:37:49;;;;;;;;;;;20.60;73.30;;;20.08;62.49;100702.03;10420214;28;726;-71
2023/09/04 11:42:46;;;;;;;;;;;20.60;73.30;;;20.08;62.54;100699.38;10420533;28;841;-65
2023/09/04 11:47:41;;;;;;;;;;;20.60;73.40;;;20.08;62.55;100696.75;10418549;28;802;-67
2023/09/04 11:52:37;;;;;;;;;;;20.60;73.70;;;20.07;62.54;100692.38;10413725;28;809;-66
2023/09/04 11:57:32;;;;;;;;;;;20.50;73.30;;;20.07;62.61;100687.09;10413464;28;1901;-65
2023/09/04 12:02:27;;;;;;;;;;;20.50;73.30;;;20.07;62.54;100682.66;10413387;28;864;-66
2023/09/04 12:07:24;;;;;;;;;;;20.60;73.60;;;20.06;62.42;100674.75;10413252;28;793;-70
2023/09/04 12:12:20;;;;;;;;;;;20.60;73.50;;;20.06;62.40;100674.75;10413013;28;940;-71
2023/09/04 12:17:16;;;;;;;;;;;20.60;73.70;;;20.05;62.42;100663.31;10413316;28;1910;-70
2023/09/04 12:22:11;;;;;;;;;;;20.50;73.30;;;20.05;62.52;100659.81;10411997;28;892;-70
2023/09/04 12:27:07;;;;;;;;;;;20.50;73.20;;;20.06;62.49;100651.78;10412384;28;988;-70
2023/09/04 12:32:02;;;;;;;;;;;20.50;73.20;;;20.06;62.38;100645.63;10411962;28;1190;-70
2023/09/04 12:36:59;;;;;;;;;;;20.50;73.20;;;20.06;62.28;100643.00;10411988;28;1886;-70
2023/09/04 12:41:54;;;;;;;;;;;20.50;73.10;;;20.06;62.36;100643.00;10411794;28;976;-70
2023/09/04 12:46:50;;;;;;;;;;;20.50;73.10;;;20.07;62.36;100645.59;10411640;28;890;-70
2023/09/04 12:51:45;;;;;;;;;;;20.50;73.10;;;20.08;62.25;100636.72;10411470;28;759;-70
2023/09/04 12:56:41;;;;;;;;;;;20.60;73.30;;;20.10;62.29;100629.59;10410599;28;1964;-70
2023/09/04 13:01:36;;;;;;;;;;;20.50;73.10;;;20.12;62.01;100632.16;10409355;28;967;-70
2023/09/04 13:06:31;;;;;;;;;;;20.50;73.10;;;20.13;62.16;100618.88;10410233;28;920;-70
2023/09/04 13:11:27;;;;;;;;;;;20.50;73.00;;;20.16;61.98;100620.53;10411240;28;814;-70
2023/09/04 13:16:23;;;;;;;;;;;20.50;73.00;;;20.20;62.08;100618.63;10410390;28;1959;-70
2023/09/04 13:21:19;;;;;;;;;;;20.60;73.10;;;20.23;61.92;100607.94;10410193;28;881;-70
2023/09/04 13:26:14;;;;;;;;;;;20.60;73.20;;;20.25;61.96;100612.25;10409513;28;917;-70
2023/09/04 13:31:12;;;;;;;;;;;20.60;73.10;;;20.29;61.91;100603.25;10410265;28;1290;-71
2023/09/04 13:36:08;;;;;;;;;;;20.60;73.20;;;20.33;61.92;100602.22;10409767;28;1977;-71
2023/09/04 13:41:03;;;;;;;;;;;20.60;73.10;;;20.36;61.77;100591.50;10409574;28;821;-70
2023/09/04 13:45:59;;;;;;;;;;;20.60;73.30;;;20.41;61.98;100582.47;10409271;28;790;-70
2023/09/04 13:50:54;;;;;;;;;;;20.70;73.40;;;20.45;61.91;100576.16;10409894;28;876;-70
2023/09/04 13:55:50;;;;;;;;;;;20.70;73.40;;;20.49;61.74;100561.88;10408837;28;1906;-70
2023/09/04 14:00:45;;;;;;;;;;;20.70;73.30;;;20.54;61.61;100567.84;10408690;28;781;-71
2023/09/04 14:05:40;;;;;;;;;;;20.80;73.30;;;20.57;61.68;100562.44;10408013;28;853;-71
2023/09/04 14:10:39;;;;;;;;;;;20.80;73.40;;;20.62;61.46;100552.50;10408937;28;884;-70
2023/09/04 14:15:34;;;;;;;;;;;20.80;73.30;;;20.67;61.47;100545.22;10408870;28;1909;-70
2023/09/04 14:20:29;;;;;;;;;;;20.80;73.20;;;20.71;61.23;100544.16;10408278;28;898;-71
2023/09/04 14:25:25;;;;;;;;;;;20.90;73.30;;;20.76;61.18;100542.16;10408701;28;885;-70
2023/09/04 14:30:20;;;;;;;;;;;20.90;73.20;;;20.83;61.17;100539.25;10407231;28;1484;-70
2023/09/04 14:35:16;;;;;;;;;;;20.90;73.10;;;20.90;61.04;100535.41;10407844;28;1917;-70
2023/09/04 14:40:12;;;;;;;;;;;21.00;73.10;;;20.94;60.89;100537.00;10407776;28;967;-71
2023/09/04 14:45:08;;;;;;;;;;;21.00;73.10;;;20.99;60.92;100530.56;10407049;28;1177;-71
2023/09/04 14:50:03;;;;;;;;;;;21.10;73.00;;;21.06;60.70;100530.28;10408523;28;915;-70
2023/09/04 14:54:59;;;;;;;;;;;21.10;72.90;;;21.10;60.62;100529.25;10408191;28;1910;-70
2023/09/04 14:59:54;;;;;;;;;;;21.10;72.80;;;21.16;60.48;100516.56;10407881;28;861;-71
2023/09/04 15:04:49;;;;;;;;;;;21.20;72.90;;;21.21;60.35;100497.78;10407461;28;805;-70
2023/09/04 15:09:45;;;;;;;;;;;21.20;72.70;;;21.26;60.44;100497.59;10407888;28;818;-71
2023/09/04 15:14:40;;;;;;;;;;;21.30;72.60;;;21.32;60.20;100486.69;10407070;28;1910;-70
2023/09/04 15:19:36;;;;;;;;;;;21.30;72.60;;;21.36;60.23;100477.69;10407807;28;953;-70
2023/09/04 15:24:31;;;;;;;;;;;21.30;72.50;;;21.40;60.03;100477.47;10410908;28;888;-71
2023/09/04 15:29:26;;;;;;;;;;;21.40;72.30;;;21.40;60.27;100472.16;10415183;28;1300;-71
2023/09/04 15:34:22;;;;;;;;;;;21.40;72.30;;;21.30;60.35;100472.63;10414435;28;1976;-71
2023/09/04 15:39:17;;;;;;;;;;;21.40;72.30;;;21.16;60.90;100471.50;10414300;28;774;-71
2023/09/04 15:44:13;;;;;;;;;;;21.40;72.40;;;20.98;61.32;100477.63;10413503;28;864;-70
2023/09/04 15:49:08;;;;;;;;;;;21.30;72.50;;;20.85;61.56;100476.47;10413844;28;891;-71
2023/09/04 15:54:03;;;;;;;;;;;21.20;72.70;;;20.78;61.67;100471.44;10414216;28;1948;-71
2023/09/04 15:58:59;;;;;;;;;;;21.10;72.80;;;20.74;61.78;100471.63;10414342;28;913;-71
2023/09/04 16:03:54;;;;;;;;;;;21.10;72.90;;;20.70;61.87;100462.97;10413314;28;774;-71
2023/09/04 16:08:49;;;;;;;;;;;21.10;72.90;;;20.67;61.87;100456.94;10413230;28;951;-71
2023/09/04 16:13:45;;;;;;;;;;;21.10;73.00;;;20.64;62.06;100452.63;10413485;28;1964;-71
2023/09/04 16:18:40;;;;;;;;;;;21.10;73.10;;;20.64;61.89;100455.28;10412214;28;854;-71
2023/09/04 16:23:36;;;;;;;;;;;21.00;73.00;;;20.62;61.89;100446.56;10412651;28;876;-71
2023/09/04 16:28:31;;;;;;;;;;;21.00;73.10;;;20.61;61.92;100450.13;10412477;28;1395;-71
2023/09/04 16:33:26;;;;;;;;;;;21.00;73.00;;;20.59;62.07;100451.97;10412216;28;1971;-71
2023/09/04 16:38:22;;;;;;;;;;;21.00;73.10;;;20.58;62.03;100453.75;10413316;28;860;-71
2023/09/04 16:43:17;;;;;;;;;;;21.00;73.20;;;20.56;62.14;100442.38;10412450;28;926;-71
2023/09/04 16:48:13;;;;;;;;;;;21.00;73.20;;;20.56;62.19;100452.09;10411700;28;781;-71
2023/09/04 16:53:08;;;;;;;;;;;21.00;73.10;;;20.55;62.08;100440.66;10411899;28;1905;-72
2023/09/04 16:58:03;;;;;;;;;;;21.00;73.10;;;20.55;61.97;100439.81;10411807;28;821;-66
2023/09/04 17:02:59;;;;;;;;;;;21.00;73.10;;;20.56;62.03;100433.56;10411101;28;944;-67
2023/09/04 17:07:54;;;;;;;;;;;21.00;73.10;;;20.54;62.03;100423.06;10410828;28;742;-67
2023/09/04 17:12:50;;;;;;;;;;;21.00;73.00;;;20.54;62.00;100419.53;10410835;28;876;-67
2023/09/04 17:17:45;;;;;;;;;;;21.00;73.00;;;20.55;61.95;100418.63;10409811;28;1902;-67
2023/09/04 17:22:40;;;;;;;;;;;21.00;73.00;;;20.55;62.00;100418.63;10410914;28;883;-67
2023/09/04 17:27:36;;;;;;;;;;;21.00;73.00;;;20.55;62.18;100418.63;10410075;28;937;-67
2023/09/04 17:32:31;;;;;;;;;;;21.00;73.00;;;20.53;61.98;100423.94;10410823;28;1416;-67
2023/09/04 17:37:27;;;;;;;;;;;21.00;73.00;;;20.54;62.21;100416.88;10409647;28;1972;-67
2023/09/04 17:42:22;;;;;;;;;;;21.00;73.00;;;20.53;62.28;100416.00;10409687;28;809;-67
2023/09/04 17:47:17;;;;;;;;;;;21.00;73.20;;;20.52;62.36;100410.78;10408578;28;801;-67
2023/09/04 17:52:13;;;;;;;;;;;21.00;73.30;;;20.53;62.43;100417.78;10409449;28;813;-66
2023/09/04 17:57:08;;;;;;;;;;;21.00;73.30;;;20.53;62.26;100420.44;10408923;28;1967;-69
2023/09/04 18:02:04;;;;;;;;;;;21.00;73.30;;;20.53;62.43;100416.00;10408810;28;911;-67
2023/09/04 18:06:59;;;;;;;;;;;21.00;73.30;;;20.53;62.32;100417.78;10409208;28;849;-67
2023/09/04 18:11:55;;;;;;;;;;;21.10;73.30;;;20.52;62.33;100435.47;10409756;28;852;-67
2023/09/04 18:16:50;;;;;;;;;;;21.00;73.30;;;20.52;62.38;100439.91;10408285;28;1902;-70
2023/09/04 18:21:46;;;;;;;;;;;21.00;73.30;;;20.53;62.56;100433.66;10408923;28;821;-70
2023/09/04 18:26:41;;;;;;;;;;;21.00;73.40;;;20.53;62.44;100445.13;10409440;28;907;-70
2023/09/04 18:31:37;;;;;;;;;;;21.10;73.60;;;20.54;62.52;100448.66;10407318;28;1222;-69
2023/09/04 18:36:33;;;;;;;;;;;21.10;73.50;;;20.54;62.50;100453.94;10407124;28;1910;-70
2023/09/04 18:41:28;;;;;;;;;;;21.10;73.50;;;20.53;62.46;100460.16;10407097;28;970;-72
2023/09/04 18:46:24;;;;;;;;;;;21.10;73.50;;;20.53;62.62;100457.50;10407515;28;847;-71
2023/09/04 18:51:19;;;;;;;;;;;21.10;73.50;;;20.53;62.70;100463.66;10407061;28;1080;-70
2023/09/04 18:56:14;;;;;;;;;;;21.10;73.50;;;20.55;62.44;100466.28;10407713;28;2330;-70
2023/09/04 19:01:10;;;;;;;;;;;21.10;73.50;;;20.57;62.47;100465.28;10415944;28;871;-70
2023/09/04 19:06:06;;;;;;;;;;;21.10;73.40;;;20.57;62.28;100460.00;10415726;28;1078;-71
2023/09/04 19:11:04;;;;;;;;;;;21.10;73.20;;;20.55;62.48;100456.53;10415501;28;889;-70
2023/09/04 19:15:59;;;;;;;;;;;21.10;73.40;;;20.56;62.54;100454.75;10415411;28;1898;-70
2023/09/04 19:20:55;;;;;;;;;;;21.10;73.40;;;20.55;62.48;100456.53;10414476;28;801;-70
2023/09/04 19:25:50;;;;;;;;;;;21.10;73.40;;;20.55;62.51;100451.25;10415664;28;810;-71
2023/09/04 19:30:46;;;;;;;;;;;21.10;73.40;;;20.55;62.81;100443.31;10414932;28;1184;-70
2023/09/04 19:35:41;;;;;;;;;;;21.10;73.40;;;20.56;62.49;100442.38;10415301;28;1964;-70
2023/09/04 19:40:36;;;;;;;;;;;21.10;73.40;;;20.55;62.63;100445.94;10414318;28;823;-70
2023/09/04 19:45:32;;;;;;;;;;;21.10;73.30;;;20.56;62.62;100431.78;10414142;28;787;-70
2023/09/04 19:50:27;;;;;;;;;;;21.20;73.30;;;20.57;62.50;100435.31;10414062;28;861;-71
2023/09/04 19:55:23;;;;;;;;;;;21.10;73.20;;;20.57;62.62;100430.00;10413759;28;1943;-71
2023/09/04 20:00:19;;;;;;;;;;;21.20;73.30;;;20.56;62.58;100423.81;10414219;28;806;-70
2023/09/04 20:05:15;;;;;;;;;;;21.20;73.30;;;20.57;62.54;100425.56;10412716;28;886;-71
2023/09/04 20:10:11;;;;;;;;;;;21.20;73.30;;;20.57;62.48;100430.88;10412528;28;769;-70
2023/09/04 20:15:06;;;;;;;;;;;21.20;73.30;;;20.57;62.47;100428.22;10412829;28;1917;-70
2023/09/04 20:20:02;;;;;;;;;;;21.20;73.30;;;20.58;62.39;100423.78;10413469;28;924;-70
2023/09/04 20:24:57;;;;;;;;;;;21.20;73.30;;;20.58;62.56;100418.47;10412574;28;945;-70
2023/09/04 20:29:53;;;;;;;;;;;21.20;73.20;;;20.58;62.55;100410.53;10412350;28;1134;-71
2023/09/04 20:34:48;;;;;;;;;;;21.20;73.10;;;20.58;62.41;100413.19;10412197;28;1906;-71
2023/09/04 20:39:43;;;;;;;;;;;21.20;73.00;;;20.58;62.50;100407.88;10412081;28;872;-71
2023/09/04 20:44:40;;;;;;;;;;;21.20;73.00;;;20.58;62.39;100397.28;10411774;28;964;-71
2023/09/04 20:49:39;;;;;;;;;;;21.20;73.00;;;20.60;62.48;100397.22;10412265;28;869;-70
2023/09/04 20:54:34;;;;;;;;;;;21.20;72.90;;;20.58;62.54;100392.84;10412259;28;1897;-70
2023/09/04 20:59:30;;;;;;;;;;;21.20;72.90;;;20.59;62.47;100388.41;10411481;28;786;-71
2023/09/04 21:04:25;;;;;;;;;;;21.20;72.90;;;20.59;62.47;100388.41;10411112;28;849;-70
2023/09/04 23:25:25;;;;;;;;;;;21.30;72.60;;;20.57;61.97;100226.94;10406671;28;662;-71
2023/09/04 23:30:20;;;;;;;;;;;21.30;72.50;;;20.57;61.93;100211.03;10407007;28;1737;-71
2023/09/04 23:45:45;;;;;;;;;;;21.30;72.40;;;20.55;61.78;100223.47;10410258;28;596;-71
2023/09/04 23:50:43;;;;;;;;;;;21.30;72.30;;;20.57;61.91;100228.72;10414671;28;817;-71
2023/09/04 23:55:38;;;;;;;;;;;21.30;72.40;;;20.58;61.99;100233.06;10413747;28;1965;-71
